Aérodrome :
LOGIN :

S'inscrire | Disclaimer

   EN    FR    IT 

 










Légende :    VFR   VFR Marginal   IFR   IFR Intensif   IFR Très Intensif
Visi : 
Plafond : 
>= 8 km
>= 3000ft
5 à 8 km
1000 à 3000 ft
1500m à 5 km
500 à 1000 ft
800 à 1500m
200 à 500 ft
< 800m
< 200 ft
Symboles :   Orages  Brouillard  Fortes neiges  Fortes précipitations  Vent > 20 kt
SIGMETs :   Divers  Orages  Givrage  Turbulence  Onde Orograph.  Cendres Volcan.







- Altitude de l'aérodrome : 512 ft
- Code IATA : URO
- Voir les cartes d'approche


LFOP - Rouen Vallée de Seine

DERNIER METAR :
  • 170930Z AUTO VRB02KT 5000 BR VV/// 14/14 Q1020 BECMG BKN020

METARs EXPIRÉS :
  • 170900Z AUTO VRB02KT 0400 0350 R22/0450N FG VV/// 12/12 Q1020 BECMG 9999 NSW BKN020
  • 170830Z AUTO VRB02KT 0300 0250 R22/0300N FG VV/// 11/11 Q1020 BECMG 9999 NSW BKN020
  • 170800Z AUTO VRB01KT 0350 R22/0550U FG VV/// 11/10 Q1019 BECMG 5000 BR BKN007
  • 170730Z AUTO 00000KT 0200 R22/0375U FG VV/// 10/10 Q1019 BECMG 5000 BR BKN007
  • 170700Z AUTO 07002KT 0250 0200 R22/M0200N FG VV/// 09/08 Q1019 BECMG 5000 BR BKN007

TAF AMD TAF LFOP
Valide du 17 à 08h jusqu'au 18 à 06h UTC


170812Z 1708/1806 VRB02KT 0300 FG VV///
BECMG 1708/1710 5000 BR BKN007
BECMG 1710/1713 9999 NSW BKN020
BECMG 1803/1806 06010KT
PROB40
TEMPO 1803/1806 BKN005
ATIS : +33 2 35 80 80 34
Météo : +33 2 32 86 52 80
Pas de NOTAMs connus pour ce terrain.



MET'MAP, la Météo Aéronautique d'un coup d'oeil ! - Copyright ORBIFLY Décembre 2007 - Disclaimer

ORBIFLY MET'MAP TEAM :

Programmation & Développement : Alexandra Zaïnal
Conception & Développement : Baudouin d'Aumeries
Co-Programmation & Développement : Marc-Olivier Méhu
Soutien technique & logistique : Manuel Goepfert

Contact : metmap@orbifly.com




SOURCES & CREDITS :

   NOAA